Racecast

Zamon Roberts

Speedalight Elite (CA) · 7-8 · Compare head to head

Athlete rating
Races 23
Seasons 2 2013 — 2014
Speed rating — all races

Track & Field

TF speed rating

2014 TF

Speedalight Elite (CA) · Grade 7-8

Date Meet Event Result Place Rating Difficulty PR/SR Flags
2014-04-26 Revolution Express TC 100m 19.69 36th · 1st on team -0.024 SR
2014-04-26 Revolution Express TC 400m 1:38.91 21st · 1st on team -0.024
2014-04-26 Revolution Express TC 200m 43.15 33rd · 1st on team -0.024 SR
2014-04-19 3rd Annual Shor/Sheppard Classic Meet 400m 1:50.17 24th · 1st on team -0.022
2014-04-05 Sacramento Speed Showcase 400m 1:40.59 42nd · 1st on team -0.033
2014-04-05 Sacramento Speed Showcase 200m 43.47 33rd · 1st on team -0.033 SR
2014-03-22 RPM 400m 1:33.04 24th · 1st on team -0.012 ★PR SR
2014-03-22 RPM 100m 19.74 56th · 1st on team -0.012 SR

2013 TF

Speedalight Elite (CA) · Grade 7-8

Date Meet Event Result Place Rating Difficulty PR/SR Flags
2013-06-08 Pacific Association Youth Championship (PAC) - 2-day meet 100m 19.54 4th · 2nd on team -0.024 ★PR SR
2013-06-08 Pacific Association Youth Championship (PAC) - 2-day meet 200m 42.11 5th · 2nd on team -0.024 ★PR SR
2013-05-18 3M Track Club 100m 19.87 57th · 4th on team -0.028 PR SR
2013-05-18 3M Track Club 400m 1:40.36 20th · 3rd on team -0.028
2013-05-04 Hercules / Running Rebels (2-day) 400m 1:38.42 27th · 3rd on team -0.038
2013-04-27 Revolution Express Track Club 100m 20.43 40th · 3rd on team -0.024
2013-04-27 Revolution Express Track Club 400m 1:35.57 22nd · 3rd on team -0.024 PR SR
2013-04-27 Revolution Express Track Club 200m 43.18 21st · 3rd on team -0.024 PR SR
2013-04-20 Shor / Sheppard Classic 100m 20.14 44th · 3rd on team -0.022 PR SR
2013-04-20 Shor / Sheppard Classic 200m 44.55 41st · 4th on team -0.022 PR SR
2013-04-06 Sacramento Speed Showcase 200m 48 36th · 4th on team -0.031 PR SR
2013-04-06 Sacramento Speed Showcase 100m 20.8 35th · 4th on team -0.031
2013-04-06 Sacramento Speed Showcase 400m 1:41.14 27th · 4th on team -0.031 PR SR
2013-03-30 Stockton Saints 100m 20.77 54th · 5th on team -0.016 PR SR
2013-03-30 Stockton Saints 400m 1:45.41 36th · 3rd on team -0.016 PR SR